createdAt,value
2019-01-09T00:02:08.243Z,54.74
2019-01-09T00:04:34.424Z,54.42
2019-01-09T00:07:00.579Z,53.31
2019-01-09T00:09:26.729Z,53.58
2019-01-09T00:11:52.922Z,53.45
2019-01-09T00:14:19.091Z,53.14
2019-01-09T00:16:45.237Z,52.40
2019-01-09T00:19:11.421Z,52.85
2019-01-09T00:21:37.573Z,52.85
2019-01-09T00:24:03.732Z,52.35
2019-01-09T00:26:31.191Z,52.07
2019-01-09T00:28:57.396Z,53.89
2019-01-09T00:31:23.500Z,53.28
2019-01-09T00:33:49.789Z,52.98
2019-01-09T00:36:15.941Z,54.50
2019-01-09T00:38:42.193Z,54.11
2019-01-09T00:41:08.484Z,54.88
2019-01-09T00:43:34.631Z,54.42
2019-01-09T00:46:00.886Z,55.31
2019-01-09T00:48:27.076Z,55.46
2019-01-09T00:50:53.236Z,54.62
2019-01-09T00:53:19.392Z,54.42
2019-01-09T00:55:45.589Z,54.05
2019-01-09T00:58:12.173Z,55.77
2019-01-09T01:00:38.323Z,53.95
2019-01-09T01:03:26.094Z,53.60
2019-01-09T01:06:17.021Z,53.80
2019-01-09T01:09:20.539Z,54.37
2019-01-09T01:12:02.071Z,54.88
2019-01-09T01:14:43.888Z,55.34
2019-01-09T01:17:22.280Z,55.35
2019-01-09T01:20:09.553Z,55.79
2019-01-09T01:22:44.985Z,55.61
2019-01-09T01:25:27.086Z,55.52
2019-01-09T01:28:02.538Z,54.75
2019-01-09T01:30:55.212Z,52.54
2019-01-09T01:33:28.054Z,51.90
2019-01-09T01:36:19.187Z,53.61
2019-01-09T01:38:55.101Z,52.68
2019-01-09T01:41:34.044Z,51.99
2019-01-09T01:44:13.235Z,56.59
2019-01-09T01:47:01.267Z,50.37
2019-01-09T01:49:54.864Z,49.89
2019-01-09T01:52:27.827Z,48.82
2019-01-09T01:55:00.306Z,48.88
2019-01-09T01:57:42.135Z,50.11
2019-01-09T02:00:20.889Z,50.99
2019-01-09T02:03:10.515Z,51.72
2019-01-09T02:05:43.298Z,52.45
2019-01-09T02:08:38.945Z,53.42
2019-01-09T02:11:14.881Z,54.31
2019-01-09T02:13:53.619Z,57.73
2019-01-09T02:16:32.508Z,56.94
2019-01-09T02:19:28.169Z,59.60
2019-01-09T02:22:03.676Z,61.15
2019-01-09T02:24:50.157Z,61.37
2019-01-09T02:27:38.456Z,62.69
2019-01-09T02:30:11.128Z,62.61
2019-01-09T02:32:37.286Z,59.59
2019-01-09T02:35:03.432Z,57.33
2019-01-09T02:37:29.739Z,56.63
2019-01-09T02:39:55.884Z,55.78
2019-01-09T02:42:22.037Z,56.99
2019-01-09T02:44:48.225Z,57.71
2019-01-09T02:47:14.382Z,58.42
2019-01-09T02:49:40.527Z,56.91
2019-01-09T02:52:06.720Z,56.81
2019-01-09T02:54:32.875Z,55.56
2019-01-09T02:56:59.031Z,57.59
2019-01-09T02:59:25.235Z,57.57
2019-01-09T03:01:52.288Z,57.87
2019-01-09T03:04:18.443Z,57.66
2019-01-09T03:06:44.629Z,55.37
2019-01-09T03:09:10.773Z,54.31
2019-01-09T03:11:36.946Z,52.88
2019-01-09T03:14:03.228Z,52.25
2019-01-09T03:16:29.478Z,51.51
2019-01-09T03:18:55.637Z,51.51
2019-01-09T03:21:22.543Z,52.00
2019-01-09T03:23:48.778Z,51.35
2019-01-09T03:26:14.926Z,51.48
2019-01-09T03:28:41.182Z,51.88
2019-01-09T03:31:07.476Z,51.75
2019-01-09T03:33:33.631Z,51.83
2019-01-09T03:35:59.824Z,52.06
2019-01-09T03:38:26.080Z,52.28
2019-01-09T03:40:52.253Z,52.13
2019-01-09T03:43:18.433Z,52.63
2019-01-09T03:45:44.588Z,52.32
2019-01-09T03:48:10.744Z,52.22
2019-01-09T03:50:36.957Z,51.73
2019-01-09T03:53:03.213Z,51.25
2019-01-09T03:55:29.375Z,51.18
2019-01-09T03:57:55.566Z,50.97
2019-01-09T04:00:22.032Z,50.67
2019-01-09T04:02:48.290Z,49.88
2019-01-09T04:05:14.480Z,48.77
2019-01-09T04:07:40.646Z,51.34
2019-01-09T04:10:06.786Z,51.95
2019-01-09T04:12:33.072Z,51.78
2019-01-09T04:14:59.329Z,52.25
2019-01-09T04:17:25.586Z,51.66
2019-01-09T04:19:51.772Z,51.95
2019-01-09T04:22:18.033Z,53.17
2019-01-09T04:24:44.187Z,53.98
2019-01-09T04:27:10.383Z,53.16
2019-01-09T04:29:36.530Z,52.95
2019-01-09T04:32:02.689Z,52.85
2019-01-09T04:34:28.880Z,51.73
2019-01-09T04:36:55.016Z,52.49
2019-01-09T04:39:21.175Z,51.73
2019-01-09T04:41:47.460Z,51.23
2019-01-09T04:44:13.724Z,52.01
2019-01-09T04:46:39.880Z,52.88
2019-01-09T04:49:06.097Z,52.98
2019-01-09T04:51:32.256Z,53.42
2019-01-09T04:53:59.477Z,53.34
2019-01-09T04:56:25.892Z,55.42
2019-01-09T04:58:52.044Z,52.72
2019-01-09T05:01:18.203Z,52.85
2019-01-09T05:03:44.494Z,52.40
2019-01-09T05:06:10.695Z,52.20
2019-01-09T05:08:36.840Z,52.73
2019-01-09T05:11:03.031Z,52.69
2019-01-09T05:13:29.183Z,52.37
2019-01-09T05:15:55.458Z,53.02
2019-01-09T05:18:21.641Z,53.40
2019-01-09T05:20:47.797Z,54.47
2019-01-09T05:23:13.945Z,55.31
2019-01-09T05:25:40.134Z,55.45
2019-01-09T05:28:06.288Z,55.06
2019-01-09T05:30:32.439Z,54.62
2019-01-09T05:32:58.681Z,54.95
2019-01-09T05:35:24.840Z,54.87
2019-01-09T05:37:50.994Z,55.93
2019-01-09T05:40:17.177Z,56.81
2019-01-09T05:42:43.335Z,56.64
2019-01-09T05:45:09.501Z,55.59
2019-01-09T05:47:35.702Z,53.83
2019-01-09T05:50:03.651Z,53.19
2019-01-09T05:52:29.803Z,52.28
2019-01-09T05:54:55.999Z,51.09
2019-01-09T05:57:22.166Z,51.67
2019-01-09T05:59:48.320Z,50.78
2019-01-09T06:02:14.611Z,50.74
2019-01-09T06:04:40.775Z,51.96
2019-01-09T06:07:06.932Z,51.19
2019-01-09T06:09:33.114Z,51.24
2019-01-09T06:11:59.273Z,51.98
2019-01-09T06:14:25.440Z,56.09
2019-01-09T06:16:51.635Z,55.21
2019-01-09T06:19:17.793Z,54.80
2019-01-09T06:21:43.966Z,55.23
2019-01-09T06:24:10.154Z,56.74
2019-01-09T06:26:36.322Z,57.28
2019-01-09T06:29:02.475Z,59.37
2019-01-09T06:31:28.659Z,58.88
2019-01-09T06:33:54.921Z,59.65
2019-01-09T06:36:21.077Z,58.69
2019-01-09T06:38:47.366Z,57.96
2019-01-09T06:41:13.619Z,57.33
2019-01-09T06:43:39.775Z,54.74
2019-01-09T06:46:05.970Z,51.46
2019-01-09T06:48:32.127Z,48.43
2019-01-09T06:50:58.287Z,47.87
2019-01-09T06:53:24.476Z,44.07
2019-01-09T06:55:50.649Z,43.34
2019-01-09T06:58:16.780Z,45.16
2019-01-09T07:00:43.960Z,43.69
2019-01-09T07:03:10.131Z,44.46
2019-01-09T07:05:36.281Z,43.52
2019-01-09T07:08:02.499Z,44.92
2019-01-09T07:10:28.647Z,44.03
2019-01-09T07:12:54.800Z,46.14
2019-01-09T07:15:21.393Z,43.37
2019-01-09T07:17:47.659Z,43.58
2019-01-09T07:20:13.819Z,41.31
2019-01-09T07:22:40.024Z,41.18
2019-01-09T07:25:06.187Z,42.49
2019-01-09T07:27:32.462Z,44.07
2019-01-09T07:29:58.663Z,43.47
2019-01-09T07:32:24.832Z,46.48
2019-01-09T07:34:51.091Z,46.16
2019-01-09T07:37:17.378Z,47.58
2019-01-09T07:39:43.536Z,44.98
2019-01-09T07:42:09.690Z,44.78
2019-01-09T07:44:35.891Z,44.56
2019-01-09T07:47:02.034Z,43.68
2019-01-09T07:49:28.188Z,43.20
2019-01-09T07:51:54.387Z,44.68
2019-01-09T07:54:20.639Z,45.64
2019-01-09T07:56:46.797Z,46.92
2019-01-09T07:59:13.671Z,45.80
2019-01-09T08:01:40.038Z,44.09
2019-01-09T08:04:06.194Z,42.29
2019-01-09T08:06:32.397Z,41.71
2019-01-09T08:08:58.560Z,39.69
2019-01-09T08:11:24.730Z,38.73
2019-01-09T08:13:50.954Z,37.87
2019-01-09T08:16:38.318Z,38.27
2019-01-09T08:19:04.503Z,38.37
2019-01-09T08:21:30.666Z,37.60
2019-01-09T08:23:56.814Z,37.50
2019-01-09T08:26:23.120Z,39.02
2019-01-09T08:28:49.273Z,37.67
2019-01-09T08:31:15.432Z,37.28
2019-01-09T08:33:41.628Z,36.79
2019-01-09T08:36:07.900Z,35.92
2019-01-09T08:38:34.110Z,34.92
2019-01-09T08:41:00.699Z,34.85
2019-01-09T08:43:26.858Z,34.14
2019-01-09T08:45:53.012Z,34.60
2019-01-09T08:48:19.315Z,36.17
2019-01-09T08:50:45.474Z,35.48
2019-01-09T08:53:11.644Z,36.09
2019-01-09T08:55:37.856Z,35.66
2019-01-09T08:58:04.011Z,34.60
2019-01-09T09:00:30.175Z,33.91
2019-01-09T09:02:56.493Z,34.50
2019-01-09T09:05:22.735Z,35.48
2019-01-09T09:07:52.502Z,36.00
2019-01-09T09:10:18.690Z,36.65
2019-01-09T09:12:44.851Z,36.52
2019-01-09T09:15:12.806Z,34.46
2019-01-09T09:17:39.011Z,33.25
2019-01-09T09:20:08.478Z,32.10
2019-01-09T09:22:34.730Z,31.16
2019-01-09T09:25:00.925Z,30.22
2019-01-09T09:27:27.082Z,30.81
2019-01-09T09:29:53.354Z,30.50
2019-01-09T09:32:19.557Z,30.94
2019-01-09T09:34:45.730Z,29.94
2019-01-09T09:37:12.045Z,28.24
2019-01-09T09:39:38.294Z,28.04
2019-01-09T09:42:04.423Z,27.37
2019-01-09T09:44:30.590Z,28.43
2019-01-09T09:46:56.802Z,28.57
2019-01-09T09:49:22.965Z,29.26
2019-01-09T09:51:49.131Z,28.91
2019-01-09T09:54:15.333Z,27.21
2019-01-09T09:56:41.711Z,26.37
2019-01-09T09:59:07.875Z,26.31
2019-01-09T10:01:34.463Z,27.79
2019-01-09T10:04:00.645Z,27.73
2019-01-09T10:06:26.916Z,29.07
2019-01-09T10:08:53.117Z,30.23
2019-01-09T10:11:19.281Z,28.99
2019-01-09T10:13:45.544Z,30.58
2019-01-09T10:16:11.734Z,30.21
2019-01-09T10:18:38.003Z,32.22
2019-01-09T10:21:04.384Z,32.15
2019-01-09T10:23:30.595Z,31.25
2019-01-09T10:25:56.756Z,30.78
2019-01-09T10:28:23.018Z,31.71
2019-01-09T10:30:49.333Z,34.11
2019-01-09T10:33:15.604Z,34.45
2019-01-09T10:35:41.764Z,35.71
2019-01-09T10:38:08.047Z,35.56
2019-01-09T10:40:36.251Z,34.96
2019-01-09T10:43:02.374Z,34.67
2019-01-09T10:45:28.577Z,33.05
2019-01-09T10:47:54.730Z,32.34
2019-01-09T10:50:20.897Z,31.15
2019-01-09T10:52:47.088Z,30.34
2019-01-09T10:55:15.644Z,31.33
2019-01-09T10:57:41.807Z,33.15
2019-01-09T11:00:11.704Z,33.54
2019-01-09T11:02:37.855Z,35.66
2019-01-09T11:05:06.820Z,35.53
2019-01-09T11:07:33.018Z,35.08
2019-01-09T11:09:59.273Z,35.71
2019-01-09T11:12:25.433Z,37.53
2019-01-09T11:14:51.747Z,38.02
2019-01-09T11:17:18.300Z,37.02
2019-01-09T11:19:44.460Z,36.75
2019-01-09T11:22:10.788Z,37.35
2019-01-09T11:24:36.940Z,37.07
2019-01-09T11:27:03.207Z,35.28
2019-01-09T11:29:29.495Z,34.92
2019-01-09T11:31:55.648Z,35.07
2019-01-09T11:34:21.809Z,35.00
2019-01-09T11:36:48.094Z,36.38
2019-01-09T11:39:15.245Z,35.36
2019-01-09T11:41:41.501Z,35.02
2019-01-09T11:44:07.708Z,35.63
2019-01-09T11:46:33.863Z,33.32
2019-01-09T11:49:00.023Z,33.12
2019-01-09T11:51:26.325Z,31.89
2019-01-09T11:53:52.589Z,32.58
2019-01-09T11:56:18.754Z,33.29
2019-01-09T11:58:45.055Z,33.25
2019-01-09T12:01:11.212Z,35.74
2019-01-09T12:03:37.364Z,36.37
2019-01-09T12:06:03.549Z,35.00
2019-01-09T12:08:29.704Z,34.87
2019-01-09T12:10:55.944Z,34.60
2019-01-09T12:13:22.252Z,36.00
2019-01-09T12:15:48.408Z,34.76
2019-01-09T12:18:14.690Z,35.41
2019-01-09T12:20:40.884Z,35.65
2019-01-09T12:23:07.142Z,34.63
2019-01-09T12:25:33.307Z,33.87
2019-01-09T12:27:59.603Z,33.81
2019-01-09T12:30:26.874Z,33.98
2019-01-09T12:32:53.443Z,35.55
2019-01-09T12:35:20.031Z,35.59
2019-01-09T12:37:46.178Z,35.11
2019-01-09T12:40:13.542Z,35.30
2019-01-09T12:42:39.787Z,35.53
2019-01-09T12:45:09.344Z,34.32
2019-01-09T12:47:35.603Z,34.94
2019-01-09T12:50:03.395Z,33.44
2019-01-09T12:52:29.552Z,33.57
2019-01-09T12:54:55.727Z,36.02
2019-01-09T12:57:21.977Z,38.12
2019-01-09T12:59:48.195Z,36.75
2019-01-09T13:02:14.865Z,36.09
2019-01-09T13:04:41.058Z,35.77
2019-01-09T13:07:07.210Z,36.48
2019-01-09T13:09:33.400Z,38.89
2019-01-09T13:11:59.708Z,37.58
2019-01-09T13:14:25.867Z,39.02
2019-01-09T13:16:52.039Z,39.17
2019-01-09T13:19:18.332Z,40.62
2019-01-09T13:21:44.489Z,41.00
2019-01-09T13:24:10.651Z,41.95
2019-01-09T13:26:36.836Z,41.63
2019-01-09T13:29:02.995Z,41.84
2019-01-09T13:31:29.162Z,42.13
2019-01-09T13:33:55.347Z,42.01
2019-01-09T13:36:21.613Z,42.19
2019-01-09T13:38:48.069Z,42.15
2019-01-09T13:41:14.385Z,41.80
2019-01-09T13:43:40.570Z,41.22
2019-01-09T13:46:06.816Z,41.63
2019-01-09T13:48:33.005Z,41.23
2019-01-09T13:50:59.159Z,39.26
2019-01-09T13:53:25.312Z,38.13
2019-01-09T13:55:51.508Z,37.55
2019-01-09T13:58:17.673Z,36.50
2019-01-09T14:00:43.832Z,36.90
2019-01-09T14:03:11.002Z,36.69
2019-01-09T14:05:37.161Z,36.05
2019-01-09T14:08:03.826Z,35.62
2019-01-09T14:10:30.135Z,37.39
2019-01-09T14:12:56.423Z,37.75
2019-01-09T14:15:23.083Z,36.78
2019-01-09T14:17:49.394Z,37.70
2019-01-09T14:20:15.536Z,39.11
2019-01-09T14:22:41.806Z,39.41
2019-01-09T14:25:10.424Z,38.77
2019-01-09T14:27:36.586Z,39.37
2019-01-09T14:30:06.451Z,40.25
2019-01-09T14:32:32.637Z,41.60
2019-01-09T14:35:06.607Z,42.83
2019-01-09T14:37:32.799Z,42.84
2019-01-09T14:39:59.016Z,44.12
2019-01-09T14:42:25.350Z,43.78
2019-01-09T14:44:51.628Z,44.61
2019-01-09T14:47:17.956Z,44.15
2019-01-09T14:49:46.846Z,45.35
2019-01-09T14:52:20.589Z,44.58
2019-01-09T14:54:46.811Z,46.60
2019-01-09T14:57:14.799Z,46.78
2019-01-09T14:59:40.993Z,46.83
2019-01-09T15:02:07.277Z,47.17
2019-01-09T15:04:33.521Z,46.41
2019-01-09T15:06:59.715Z,48.25
2019-01-09T15:09:25.867Z,47.93
2019-01-09T15:11:52.024Z,48.87
2019-01-09T15:14:18.226Z,48.07
2019-01-09T15:16:44.372Z,47.66
2019-01-09T15:19:10.558Z,48.36
2019-01-09T15:21:36.745Z,47.79
2019-01-09T15:24:08.541Z,48.73
2019-01-09T15:26:33.247Z,48.14
2019-01-09T15:28:59.440Z,47.98
2019-01-09T15:31:25.805Z,48.81
2019-01-09T15:33:51.957Z,48.59
2019-01-09T15:36:18.266Z,49.29
2019-01-09T15:38:44.543Z,49.79
2019-01-09T15:41:10.809Z,49.68
2019-01-09T15:43:37.131Z,49.66
2019-01-09T15:46:03.395Z,49.91
2019-01-09T15:48:29.653Z,52.38
2019-01-09T15:50:55.851Z,55.10
2019-01-09T15:53:22.016Z,56.06
2019-01-09T15:58:42.330Z,57.03
2019-01-09T16:01:08.888Z,56.85
2019-01-09T16:03:35.279Z,55.76
2019-01-09T16:06:01.469Z,56.06
2019-01-09T16:08:27.749Z,56.60
2019-01-09T16:10:54.043Z,56.93
2019-01-09T16:13:20.236Z,56.77
2019-01-09T16:15:46.414Z,56.64
2019-01-09T16:18:12.575Z,57.84
2019-01-09T16:20:38.980Z,57.44
2019-01-09T16:23:05.132Z,58.19
2019-01-09T16:25:31.310Z,58.00
2019-01-09T16:27:59.494Z,58.63
2019-01-09T16:30:34.304Z,57.14
2019-01-09T16:33:00.835Z,58.89
2019-01-09T16:35:30.443Z,59.68
2019-01-09T16:37:56.809Z,59.77
2019-01-09T16:40:23.762Z,59.90
2019-01-09T16:42:50.279Z,60.15
2019-01-09T16:45:18.675Z,58.37
2019-01-09T16:47:47.739Z,58.31
2019-01-09T16:50:19.736Z,58.08
2019-01-09T16:52:45.897Z,58.58
2019-01-09T16:55:12.060Z,59.17
2019-01-09T16:57:38.591Z,59.05
2019-01-09T17:00:30.105Z,58.19
2019-01-09T17:02:56.297Z,59.15
2019-01-09T17:05:22.454Z,59.09
2019-01-09T17:07:55.070Z,59.66
2019-01-09T17:10:21.359Z,59.71
2019-01-09T17:12:47.524Z,58.80
2019-01-09T17:15:15.693Z,59.04
2019-01-09T17:17:41.891Z,58.60
2019-01-09T17:20:11.572Z,59.15
2019-01-09T17:22:37.737Z,58.22
2019-01-09T17:25:05.432Z,58.96
2019-01-09T17:27:31.698Z,59.47
2019-01-09T17:29:57.872Z,59.60
2019-01-09T17:32:24.068Z,58.96
2019-01-09T17:34:50.324Z,58.96
2019-01-09T17:37:16.587Z,57.53
2019-01-09T17:39:42.827Z,58.01
2019-01-09T17:42:09.104Z,57.59
2019-01-09T17:44:35.297Z,59.33
2019-01-09T17:47:01.528Z,58.51
2019-01-09T17:49:27.789Z,57.77
2019-01-09T17:51:53.939Z,56.83
2019-01-09T17:54:20.152Z,60.00
2019-01-09T17:56:46.403Z,58.85
2019-01-09T17:59:12.572Z,59.86
2019-01-09T18:01:38.867Z,59.78
2019-01-09T18:04:05.522Z,59.03
2019-01-09T18:06:31.679Z,59.75
2019-01-09T18:08:57.960Z,59.54
2019-01-09T18:11:24.220Z,57.66
2019-01-09T18:13:50.485Z,57.42
2019-01-09T18:16:16.780Z,57.09
2019-01-09T18:18:43.368Z,57.06
2019-01-09T18:21:09.777Z,57.36
2019-01-09T18:23:35.960Z,58.78
2019-01-09T18:26:02.316Z,58.07
2019-01-09T18:28:28.576Z,57.31
2019-01-09T18:31:03.441Z,57.18
2019-01-09T18:33:29.859Z,57.12
2019-01-09T18:36:20.739Z,57.49
2019-01-09T18:39:10.365Z,57.38
2019-01-09T18:41:46.422Z,57.91
2019-01-09T18:44:27.941Z,58.06
2019-01-09T18:47:12.719Z,59.32
2019-01-09T18:49:42.497Z,58.34
2019-01-09T18:52:18.137Z,57.66
2019-01-09T18:54:44.404Z,57.86
2019-01-09T18:57:10.571Z,57.62
2019-01-09T18:59:36.871Z,57.62
2019-01-09T19:02:03.546Z,57.87
2019-01-09T19:04:30.192Z,57.83
2019-01-09T19:06:56.392Z,58.38
2019-01-09T19:09:22.563Z,58.11
2019-01-09T19:11:50.676Z,58.49
2019-01-09T19:14:16.841Z,59.04
2019-01-09T19:16:42.991Z,60.74
2019-01-09T19:19:09.256Z,60.80
2019-01-09T19:21:35.553Z,61.73
2019-01-09T19:24:01.824Z,62.37
2019-01-09T19:26:28.005Z,62.54
2019-01-09T19:28:54.212Z,63.80
2019-01-09T19:31:20.372Z,63.69
2019-01-09T19:33:46.671Z,64.22
2019-01-09T19:36:12.863Z,64.85
2019-01-09T19:38:39.351Z,63.95
2019-01-09T19:41:05.605Z,64.21
2019-01-09T19:43:31.794Z,63.75
2019-01-09T19:45:58.093Z,62.96
2019-01-09T19:48:25.377Z,62.88
2019-01-09T19:50:51.577Z,62.96
2019-01-09T19:53:18.044Z,63.70
2019-01-09T19:55:44.203Z,63.98
2019-01-09T19:58:10.399Z,63.15
2019-01-09T20:00:36.564Z,62.46
2019-01-09T20:03:02.732Z,62.66
2019-01-09T20:05:28.936Z,63.06
2019-01-09T20:07:57.511Z,62.65
2019-01-09T20:10:26.602Z,63.27
2019-01-09T20:12:52.747Z,63.12
2019-01-09T20:15:19.415Z,63.69
2019-01-09T20:17:45.782Z,64.81
2019-01-09T20:20:14.900Z,62.93
2019-01-09T20:22:41.224Z,62.46
2019-01-09T20:25:08.879Z,63.86
2019-01-09T20:27:35.178Z,64.98
2019-01-09T20:30:01.338Z,64.85
2019-01-09T20:32:27.596Z,66.06
2019-01-09T20:34:53.792Z,65.37
2019-01-09T20:37:19.934Z,64.59
2019-01-09T20:39:46.190Z,64.98
2019-01-09T20:42:12.387Z,64.30
2019-01-09T20:44:38.570Z,65.12
2019-01-09T20:47:04.863Z,65.28
2019-01-09T20:49:31.140Z,63.63
2019-01-09T20:51:57.401Z,64.48
2019-01-09T20:54:23.567Z,63.83
2019-01-09T20:56:50.030Z,64.15
2019-01-09T20:59:16.236Z,63.35
2019-01-09T21:01:42.492Z,64.68
2019-01-09T21:04:08.700Z,63.80
2019-01-09T21:06:34.848Z,64.94
2019-01-09T21:09:01.027Z,63.92
2019-01-09T21:11:29.777Z,63.70
2019-01-09T21:13:55.997Z,63.60
2019-01-09T21:16:22.212Z,63.01
2019-01-09T21:18:48.392Z,62.44
2019-01-09T21:21:14.650Z,62.29
2019-01-09T21:23:40.808Z,62.17
2019-01-09T21:26:06.996Z,62.47
2019-01-09T21:28:33.159Z,62.52
2019-01-09T21:30:59.324Z,62.65
2019-01-09T21:33:25.618Z,62.43
2019-01-09T21:35:51.780Z,62.18
2019-01-09T21:38:17.943Z,62.04
2019-01-09T21:40:44.130Z,61.78
2019-01-09T21:43:10.395Z,61.48
2019-01-09T21:45:36.554Z,61.27
2019-01-09T21:48:03.360Z,61.12
2019-01-09T21:50:29.528Z,60.87
2019-01-09T21:52:55.786Z,60.88
2019-01-09T21:55:21.975Z,61.25
2019-01-09T21:57:48.236Z,61.63
2019-01-09T22:00:17.823Z,62.36
2019-01-09T22:02:44.008Z,62.89
2019-01-09T22:05:10.497Z,62.79
2019-01-09T22:07:36.644Z,63.02
2019-01-09T22:10:06.558Z,62.80
2019-01-09T22:12:32.819Z,62.75
2019-01-09T22:14:58.972Z,62.69
2019-01-09T22:17:25.176Z,63.62
2019-01-09T22:19:51.333Z,63.08
2019-01-09T22:22:17.504Z,62.87
2019-01-09T22:24:43.886Z,63.09
2019-01-09T22:27:11.170Z,62.75
2019-01-09T22:29:37.334Z,63.38
2019-01-09T22:32:03.641Z,63.37
2019-01-09T22:34:30.097Z,64.19
2019-01-09T22:36:56.349Z,63.61
2019-01-09T22:39:22.655Z,63.77
2019-01-09T22:41:48.922Z,64.66
2019-01-09T22:44:15.190Z,64.06
2019-01-09T22:46:41.385Z,63.44
2019-01-09T22:49:07.545Z,63.64
2019-01-09T22:51:33.749Z,64.03
2019-01-09T22:54:00.066Z,63.61
2019-01-09T22:56:26.935Z,64.52
2019-01-09T22:58:53.100Z,65.14
2019-01-09T23:01:19.901Z,64.54
2019-01-09T23:03:46.264Z,64.58
2019-01-09T23:06:12.516Z,64.42
2019-01-09T23:08:38.727Z,63.86
2019-01-09T23:11:05.182Z,62.98
2019-01-09T23:13:31.447Z,64.61
2019-01-09T23:15:57.648Z,64.49
2019-01-09T23:18:24.109Z,63.84
2019-01-09T23:20:50.373Z,63.90
2019-01-09T23:23:16.766Z,63.22
2019-01-09T23:29:04.680Z,63.19
2019-01-09T23:31:31.033Z,64.27
2019-01-09T23:33:57.216Z,65.01
2019-01-09T23:36:23.523Z,64.71
2019-01-09T23:38:49.676Z,64.63
2019-01-09T23:41:16.035Z,64.51
2019-01-09T23:43:42.340Z,64.68
2019-01-09T23:46:08.505Z,64.99
2019-01-09T23:48:34.672Z,64.54
2019-01-09T23:51:00.875Z,64.02
2019-01-09T23:53:27.128Z,63.42
2019-01-09T23:55:53.286Z,64.24
2019-01-09T23:58:19.489Z,64.09
